Main page
METAR-TAF:

METAR-TAF

Airports :

Saarbrücken Airport

Saarbrücken, Germany

latitude: 49-13N, longitude: 007-07E, elevation: 322 m

Current weather observation

The report was made 30 minutes ago, at 22:50 UTC
Wind 11 kt from the Northeast
Temperature 16°C
Humidity 39%
Pressure 1001 hPa
Visibility 10 km or more
no clouds below 1500 m and no cumulonimbus

METAR: EDDR 222250Z 04011KT CAVOK 16/02 Q1001

Time: 01:20 (23:20 UTC)

Forecast

The report was made 6 hours and 20 minutes ago, at 17:00 UTC
Forecast valid from 22 at 18 UTC to 23 at 18 UTC
Wind 10 kt from the East/Northeast
Visibility 10 km or more
no clouds below 1500 m and no cumulonimbus
Becoming
from 23 at 09 UTC to 23 at 12 UTC
Wind 7 kt from the East/Southeast

TAF: EDDR 221700Z 2218/2318 06010KT CAVOK BECMG 2309/2312 12007KT

Weather observations and forecasts of more than 4000 airports (METAR and TAF reports).

The available stations are represented by yellow and red dots on the map.

Hover mouse over dot to see the name of the station.

Then click to see weather observations and forecasts.

To change the map : click on the green buttons with a black cross to zoom in, on the green button with a dash to zoom out, or on the green arrows for adjacent maps.


METAR-TAF: